• Join FlightAware (Why Join?)
  • Login
  • US Flag 
12:39AM EDT


 

Airport Tracker/Info


-or-


 

Live Flight TrackerFlight Track Log ✈ N543PU ✈ 12-Nov-2013 ✈ KHUF - KLAF

Flight Track Log - Related Links

Times and Time Zones

All times are in EST time to prevent confusion due to time zone crossing. See the N543PU flight status page for this flight to view local times or setup timezone preferences in your user account.

Time Position Orientation Groundspeed Altitude Reporting Facility
EST Latitude Longitude Course Direction KTS MPH feet Rate Location/Type
12:38PM 39.4500 -87.3000 194° South  Level FlightAware Approximate
12:39PM 39.4515 -87.3076 194° South  Level Estimated
12:40PM 39.4800 -87.3004 11° North  Level FlightAware Approximate
12:41PM 39.5085 -87.2932 11° North  Level FlightAware Approximate
12:42PM 39.5370 -87.2860 11° North  Level FlightAware Approximate
12:43PM 39.5656 -87.2787 11° North  Level FlightAware Approximate
12:44PM 39.5941 -87.2715 11° North  Level FlightAware Approximate
12:45PM 39.6226 -87.2643 11° North  Level FlightAware Approximate
12:46PM 39.6511 -87.2571 11° North  Level FlightAware Approximate
12:47PM 39.6796 -87.2498 11° North  Level FlightAware Approximate
12:48PM 39.7073 -87.2382 North  Level Estimated
12:49PM 39.7349 -87.2265 North  Level Estimated
12:50PM 39.7636 -87.2203 North  Level FlightAware Approximate
12:51PM 39.7923 -87.2141 North  Level FlightAware Approximate
12:52PM 39.8198 -87.2019 53° Northeast  Level Estimated
12:53PM 39.8476 -87.1912 16° North  Level FlightAware Approximate
12:54PM 39.8755 -87.1805 16° North  Level FlightAware Approximate
12:55PM 39.9034 -87.1697 16° North  Level FlightAware Approximate
12:56PM 39.9308 -87.1572 66° East  Level Estimated
12:57PM 39.9583 -87.1448 66° East  Level Estimated
12:58PM 39.9857 -87.1323 66° East  Level Estimated
12:59PM 40.0131 -87.1198 66° East  Level Estimated
01:00PM 40.0406 -87.1073 66° East  Level Estimated
01:01PM 40.0680 -87.0948 66° East  Level Estimated
01:02PM 40.0955 -87.0823 66° East  Level Estimated
01:02PM 39.5306 -87.3164 66° East 101 116 4,300  Level Indianapolis Center
01:03PM 40.1229 -87.0697 66° East  Level Estimated
01:03PM 39.5503 -87.3061 22° Northeast 79 91 5,100  Level Indianapolis Center
01:04PM 40.1503 -87.0572 66° East  Level Estimated
01:04PM 39.5789 -87.2886 25° Northeast 94 108 5,100  Level Indianapolis Center
01:05PM 40.1778 -87.0447 66° East  Level Estimated
01:05PM 39.6142 -87.2719 20° North 116 133 5,000  Level Indianapolis Center
01:06PM 39.4794 -87.2970 66° East  Level Estimated
01:06PM 39.6486 -87.2583 17° North 125 144 5,100  Level Indianapolis Center
01:07PM 39.5072 -87.2864 66° East  Level Estimated
01:07PM 39.6808 -87.2431 20° North 125 144 5,100  Level Indianapolis Center
01:08PM 39.7150 -87.2339 12° North 125 144 5,200  Climbing Indianapolis Center
01:09PM 39.7489 -87.2292 North 124 143 5,100 -120 Descending Indianapolis Center
01:10PM 39.7864 -87.2125 19° North 124 143 5,000 -60 Descending Indianapolis Center
01:12PM 39.8329 -87.1801 North  Level FlightAware Approximate
01:19PM 40.0345 -87.1443 North  Level FlightAware Approximate
01:20PM 40.0633 -87.1395 North  Level FlightAware Approximate
01:21PM 40.0921 -87.1347 North  Level FlightAware Approximate
01:22PM 40.1209 -87.1299 North  Level FlightAware Approximate
01:23PM 40.1498 -87.1251 North  Level FlightAware Approximate
01:23PM 40.1719 -87.0128 North 131 151 5,000  Level Chicago Center
01:24PM 40.1786 -87.1202 North  Level FlightAware Approximate
01:24PM 40.1925 -86.9653 60° Northeast 140 161 4,500  Level Chicago Center
01:25PM 40.2075 -87.1167 North  Level FlightAware Approximate
01:25PM 40.2131 -86.9231 57° Northeast 148 170 4,000  Level Chicago Center
01:26PM 40.2365 -87.1160 North  Level FlightAware Approximate
01:26PM 40.2317 -86.8725 64° Northeast 144 166 3,300  Level Chicago Center
01:27PM 40.2652 -87.1103 North  Level FlightAware Approximate
01:27PM 40.2461 -86.8244 68° East 136 157 3,000  Level Chicago Center
01:28PM 40.2940 -87.1045 North  Level FlightAware Approximate
01:28PM 40.2622 -86.7844 62° Northeast 133 153 2,900  Level Chicago Center
01:29PM 40.2828 -86.7367 61° Northeast 132 152 3,000 -60 Climbing Chicago Center
01:30PM 40.3108 -86.7086 37° Northeast 132 152 2,800 -180 Descending Chicago Center
01:32PM 40.3825 -86.6939 North 137 158 2,500 -180 Descending Chicago Center
01:33PM 40.3892 -86.7381 281° West 131 151 2,300 -180 Descending Chicago Center
01:34PM 40.3917 -86.7792 275° West 108 124 2,200 -60 Descending Chicago Center
01:35PM 40.3944 -86.8175 275° West 108 124 2,200 -360 Level Chicago Center
01:36PM 40.4017 -86.8508 286° West 88 101 1,500 -360 Descending Chicago Center
01:37PM 40.4047 -86.8783 278° West 76 87 1,500  Level Chicago Center